Time;durP1;ratioP1;P1;durP2;ratioP2;P2;SDS_P1;SDS_P2;PMS_P1;PMS_P2;Temp;Humidity;BMP_temperature;BMP_pressure;BME280_temperature;BME280_humidity;BME280_pressure;Samples;Min_cycle;Max_cycle;Signal;HPM_P1;HPM_P2
2022/01/10 00:00:15;;;;;;;33.20;18.80;;;;;;;-1.88;100.00;101097.25;5054147;28;20057;-78
2022/01/10 00:02:43;;;;;;;35.30;19.17;;;;;;;-1.89;100.00;101092.22;5053883;28;20092;-76
2022/01/10 00:05:09;;;;;;;34.13;18.88;;;;;;;-2.10;100.00;101060.31;5053835;28;20036;-75
2022/01/10 00:07:35;;;;;;;32.42;18.98;;;;;;;-1.92;100.00;101099.84;5053892;28;20032;-73
2022/01/10 00:10:02;;;;;;;29.92;19.25;;;;;;;-1.89;100.00;101109.94;5053949;28;20080;-77
2022/01/10 00:12:28;;;;;;;31.00;19.55;;;;;;;-1.97;100.00;101106.63;5053905;28;20029;-78
2022/01/10 00:14:53;;;;;;;32.10;19.90;;;;;;;-1.96;100.00;101105.78;5053843;28;20380;-75
2022/01/10 00:17:18;;;;;;;34.20;19.77;;;;;;;-1.94;100.00;101130.22;5053948;28;20033;-80
2022/01/10 00:19:44;;;;;;;30.35;19.27;;;;;;;-1.97;100.00;101121.78;5053684;28;20525;-76
2022/01/10 00:22:11;;;;;;;35.45;19.35;;;;;;;-1.97;100.00;101135.28;5053626;28;20108;-77
2022/01/10 00:24:36;;;;;;;34.10;18.92;;;;;;;-1.99;100.00;101139.53;5053833;28;20035;-77
2022/01/10 00:27:02;;;;;;;32.97;19.27;;;;;;;-2.02;100.00;101135.34;5053396;28;20045;-77
2022/01/10 00:29:27;;;;;;;33.10;18.95;;;;;;;-2.03;100.00;101136.19;5053595;28;20079;-78
2022/01/10 00:31:53;;;;;;;35.00;19.20;;;;;;;-2.04;100.00;101138.72;5053566;28;20032;-75
2022/01/10 00:34:19;;;;;;;32.25;20.05;;;;;;;-2.07;100.00;101138.72;5053513;28;20484;-75
2022/01/10 00:36:44;;;;;;;30.15;19.50;;;;;;;-2.06;100.00;101142.97;5053020;28;20025;-74
2022/01/10 00:39:09;;;;;;;31.85;19.13;;;;;;;-2.06;100.00;101136.22;5035731;28;20033;-75
2022/01/10 00:41:35;;;;;;;33.95;19.20;;;;;;;-2.09;100.00;101143.81;5053379;28;20050;-74
2022/01/10 00:44:01;;;;;;;31.48;19.40;;;;;;;-2.09;100.00;101142.97;5053638;28;20068;-74
2022/01/10 00:46:27;;;;;;;33.72;19.23;;;;;;;-2.10;100.00;101142.13;5053454;28;20029;-75
2022/01/10 00:48:55;;;;;;;33.38;20.23;;;;;;;-2.15;100.00;101131.22;5053338;28;20078;-75
2022/01/10 00:51:21;;;;;;;35.88;21.10;;;;;;;-2.17;100.00;101147.22;5052716;28;20051;-80
2022/01/10 00:53:49;;;;;;;35.92;20.25;;;;;;;-2.13;100.00;101159.03;5053360;28;20144;-88
2022/01/10 00:56:15;;;;;;;32.72;20.10;;;;;;;-2.30;100.00;101133.81;5053152;28;20025;-90
2022/01/10 00:58:41;;;;;;;33.72;20.48;;;;;;;-2.14;100.00;101164.94;5053477;28;20437;-89
2022/01/10 01:01:06;;;;;;;32.42;20.95;;;;;;;-2.15;100.00;101175.91;5053195;28;20025;-89
2022/01/10 01:03:32;;;;;;;38.53;20.77;;;;;;;-2.16;100.00;101182.66;5053610;28;20388;-85
2022/01/10 01:05:57;;;;;;;30.38;20.73;;;;;;;-2.42;100.00;101144.00;5052830;28;20025;-90
2022/01/10 01:08:25;;;;;;;33.65;21.25;;;;;;;-2.31;100.00;101173.44;5053108;28;20029;-88
2022/01/10 01:14:10;;;;;;;36.85;19.67;;;;;;;-2.26;100.00;101196.19;5053668;28;20127;-80
2022/01/10 01:20:03;;;;;;;33.10;20.05;;;;;;;-2.22;100.00;101209.66;5053046;28;20036;-81
2022/01/10 01:24:37;;;;;;;33.67;21.17;;;;;;;-2.24;100.00;101224.00;5053234;28;20559;-88
2022/01/10 01:27:03;;;;;;;38.78;22.45;;;;;;;-2.41;100.00;101193.72;5052923;28;20049;-75
2022/01/10 01:29:30;;;;;;;34.80;21.27;;;;;;;-2.27;100.00;101224.84;5052776;28;20495;-84
2022/01/10 01:31:56;;;;;;;36.55;21.92;;;;;;;-2.35;100.00;101211.41;5052621;28;20484;-86
2022/01/10 01:34:24;;;;;;;33.28;22.50;;;;;;;-2.39;100.00;101202.13;5052833;28;20036;-76
2022/01/10 01:36:52;;;;;;;39.40;21.67;;;;;;;-2.27;100.00;101229.06;5052582;28;20472;-74
2022/01/10 01:39:22;;;;;;;39.00;22.15;;;;;;;-2.28;100.00;101238.34;5052901;28;20043;-88
2022/01/10 01:41:49;;;;;;;34.80;21.65;;;;;;;-2.41;100.00;101219.00;5052616;28;20029;-85
2022/01/10 01:44:15;;;;;;;38.15;22.40;;;;;;;-2.31;100.00;101253.53;5052771;28;20025;-74
2022/01/10 01:46:42;;;;;;;41.20;23.15;;;;;;;-2.31;100.00;101251.00;5052406;28;20032;-88
2022/01/10 01:49:08;;;;;;;40.58;22.08;;;;;;;-2.31;100.00;101256.91;5052807;28;20040;-77
2022/01/10 01:51:34;;;;;;;40.20;23.08;;;;;;;-2.40;100.00;101251.03;5052908;28;20029;-75
2022/01/10 01:53:59;;;;;;;36.95;22.70;;;;;;;-2.36;100.00;101262.81;5052695;28;20020;-87
2022/01/10 01:56:25;;;;;;;38.90;23.20;;;;;;;-2.45;100.00;101260.34;5052440;28;20021;-75
2022/01/10 01:58:55;;;;;;;40.40;23.33;;;;;;;-2.39;100.00;101268.72;5052475;28;20036;-86
2022/01/10 02:01:21;;;;;;;39.08;22.58;;;;;;;-2.52;100.00;101254.44;5052172;28;20029;-87
2022/01/10 02:03:47;;;;;;;40.40;23.13;;;;;;;-2.35;100.00;101280.53;5054098;28;20024;-75
2022/01/10 02:06:13;;;;;;;37.90;23.15;;;;;;;-2.42;100.00;101268.75;5056645;28;20032;-78
2022/01/10 02:08:40;;;;;;;40.40;23.48;;;;;;;-2.52;100.00;101253.59;5056458;28;20025;-85
2022/01/10 02:11:07;;;;;;;39.20;23.58;;;;;;;-2.41;100.00;101272.13;5056462;28;20483;-87
2022/01/10 02:13:33;;;;;;;45.50;25.00;;;;;;;-2.43;100.00;101262.00;5056380;28;20480;-75
2022/01/10 02:16:04;;;;;;;41.67;25.02;;;;;;;-2.44;100.00;101257.81;5056262;28;20021;-75
2022/01/10 02:18:30;;;;;;;43.47;24.20;;;;;;;-2.28;100.00;101278.81;5056296;28;20496;-75
2022/01/10 02:21:01;;;;;;;42.50;24.70;;;;;;;-2.26;100.00;101273.75;5056485;28;20033;-75
2022/01/10 02:23:27;;;;;;;49.75;26.08;;;;;;;-2.20;100.00;101273.72;5056072;28;20059;-77
2022/01/10 02:25:53;;;;;;;39.85;24.13;;;;;;;-2.11;100.00;101296.47;5056115;28;20021;-88
2022/01/10 02:28:18;;;;;;;42.78;25.02;;;;;;;-2.09;100.00;101307.44;5055768;28;20481;-80
2022/01/10 02:30:44;;;;;;;40.28;24.65;;;;;;;-2.28;100.00;101275.44;5055963;28;20025;-78
2022/01/10 02:33:09;;;;;;;45.53;24.92;;;;;;;-2.15;100.00;101310.84;5056167;28;20024;-79
2022/01/10 02:35:45;;;;;;;43.90;25.65;;;;;;;-2.20;100.00;101310.00;5056217;28;20025;-74
2022/01/10 02:38:11;;;;;;;43.65;24.30;;;;;;;-2.14;100.00;101322.63;5055686;28;20057;-87
2022/01/10 02:40:37;;;;;;;40.83;25.27;;;;;;;-2.13;100.00;101331.06;5055864;28;20063;-76
2022/01/10 02:43:07;;;;;;;43.22;24.92;;;;;;;-2.13;100.00;101342.03;5055787;28;20032;-81
2022/01/10 02:45:32;;;;;;;42.70;24.95;;;;;;;-2.06;100.00;101330.22;5037852;28;20032;-77
2022/01/10 02:47:57;;;;;;;45.53;25.58;;;;;;;-1.99;100.00;101336.06;5055617;28;20381;-75
2022/01/10 02:50:23;;;;;;;43.20;25.50;;;;;;;-1.97;100.00;101335.22;5055828;28;20091;-75
2022/01/10 02:52:49;;;;;;;42.88;24.30;;;;;;;-1.91;100.00;101336.91;5055500;28;20025;-78
2022/01/10 02:55:15;;;;;;;48.88;26.45;;;;;;;-1.87;100.00;101341.97;5055793;28;20108;-77
2022/01/10 02:57:40;;;;;;;48.35;26.55;;;;;;;-1.87;100.00;101362.22;5055503;28;20527;-78
2022/01/10 03:00:10;;;;;;;52.40;29.05;;;;;;;-1.84;100.00;101344.47;5055515;28;20060;-77
2022/01/10 03:02:36;;;;;;;51.45;31.55;;;;;;;-1.55;100.00;101368.81;5055562;28;20115;-79
2022/01/10 03:05:04;;;;;;;55.75;30.45;;;;;;;-1.47;100.00;101383.16;5055288;28;20097;-74
2022/01/10 03:07:29;;;;;;;59.47;30.35;;;;;;;-1.39;100.00;101378.00;5055309;28;20496;-80
2022/01/10 03:09:54;;;;;;;57.72;31.15;;;;;;;-1.34;100.00;101383.06;5055157;28;20065;-77
2022/01/10 03:12:21;;;;;;;58.00;30.02;;;;;;;-1.30;100.00;101377.97;5037318;28;20025;-76
2022/01/10 03:14:46;;;;;;;48.92;28.80;;;;;;;-1.38;100.00;101371.25;5054979;28;20383;-77
2022/01/10 03:17:12;;;;;;;51.33;28.83;;;;;;;-1.35;100.00;101369.56;5055046;28;20025;-75
2022/01/10 03:19:39;;;;;;;55.40;30.92;;;;;;;-1.30;100.00;101372.91;5055130;28;20053;-76
2022/01/10 03:22:05;;;;;;;52.17;28.77;;;;;;;-1.19;100.00;101393.94;5055325;28;20439;-78
2022/01/10 03:24:31;;;;;;;59.03;29.60;;;;;;;-1.26;100.00;101386.41;5054636;28;20029;-79
2022/01/10 03:26:56;;;;;;;49.25;29.20;;;;;;;-1.18;100.00;101400.72;5054620;28;20135;-76
2022/01/10 03:29:22;;;;;;;50.80;28.80;;;;;;;-1.15;100.00;101397.34;5054937;28;20064;-75
2022/01/10 03:31:47;;;;;;;49.33;28.98;;;;;;;-1.09;100.00;101407.41;5054670;28;20025;-75
2022/01/10 03:34:13;;;;;;;49.25;28.08;;;;;;;-1.06;100.00;101411.66;5054884;28;20460;-75
2022/01/10 03:36:43;;;;;;;47.90;28.48;;;;;;;-1.06;100.00;101407.41;5054823;28;20484;-76
2022/01/10 03:39:09;;;;;;;54.13;29.73;;;;;;;-1.04;100.00;101418.38;5054546;28;20392;-74
2022/01/10 03:41:35;;;;;;;55.17;30.17;;;;;;;-1.19;100.00;101395.66;5055042;28;20036;-87
2022/01/10 03:44:01;;;;;;;57.15;30.45;;;;;;;-1.11;100.00;101410.81;5054834;28;20127;-82
2022/01/10 03:46:27;;;;;;;48.67;29.85;;;;;;;-0.93;100.00;101441.13;5054590;28;20108;-74
2022/01/10 03:48:53;;;;;;;55.08;31.90;;;;;;;-1.01;100.00;101420.06;5054633;28;20052;-76
2022/01/10 03:51:19;;;;;;;55.75;31.15;;;;;;;-0.85;100.00;101448.69;5054710;28;20465;-77
2022/01/10 03:53:44;;;;;;;55.38;31.35;;;;;;;-0.81;100.00;101447.81;5054386;28;20068;-84
2022/01/10 03:56:10;;;;;;;59.63;31.60;;;;;;;-0.81;100.00;101450.34;5054437;28;20031;-81
2022/01/10 03:58:35;;;;;;;57.15;31.48;;;;;;;-0.73;100.00;101458.75;5054741;28;20028;-74
2022/01/10 04:01:02;;;;;;;60.65;32.28;;;;;;;-0.80;100.00;101439.34;5054284;28;20130;-87
2022/01/10 04:03:28;;;;;;;54.22;31.10;;;;;;;-0.75;100.00;101452.88;5054288;28;20032;-75
2022/01/10 04:05:54;;;;;;;53.72;30.65;;;;;;;-0.64;100.00;101468.84;5036533;28;20037;-90
2022/01/10 04:08:19;;;;;;;57.80;32.05;;;;;;;-0.81;100.00;101437.69;5054182;28;20423;-75
2022/01/10 04:10:44;;;;;;;50.75;29.90;;;;;;;-0.63;100.00;101475.59;5054041;28;20126;-74
2022/01/10 04:13:10;;;;;;;56.83;31.55;;;;;;;-0.66;100.00;101476.47;5053970;28;20122;-78
2022/01/10 04:15:35;;;;;;;56.08;31.83;;;;;;;-0.67;100.00;101479.84;5054341;28;20032;-75
2022/01/10 04:18:02;;;;;;;53.85;30.42;;;;;;;-0.66;100.00;101484.06;5053912;28;20036;-76
2022/01/10 04:20:27;;;;;;;57.65;32.65;;;;;;;-0.63;100.00;101489.13;5054225;28;20028;-87
2022/01/10 04:22:53;;;;;;;57.25;30.08;;;;;;;-0.70;100.00;101477.31;5036186;28;20361;-76
2022/01/10 04:25:19;;;;;;;62.38;30.75;;;;;;;-0.56;100.00;101496.69;5053853;28;20017;-75
2022/01/10 04:27:45;;;;;;;53.67;31.17;;;;;;;-0.54;100.00;101498.38;5053051;28;20044;-90
2022/01/10 04:30:10;;;;;;;54.63;31.05;;;;;;;-0.52;100.00;101496.66;5036161;28;20045;-88
2022/01/10 04:32:37;;;;;;;57.88;32.95;;;;;;;-0.67;100.00;101479.84;5035957;28;20052;-88
2022/01/10 04:35:03;;;;;;;60.80;31.15;;;;;;;-0.52;100.00;101499.19;5053540;28;20076;-75
2022/01/10 04:37:28;;;;;;;59.33;31.60;;;;;;;-0.51;100.00;101507.66;5053797;28;20052;-91
2022/01/10 04:39:54;;;;;;;57.20;31.65;;;;;;;-0.46;100.00;101532.16;5053551;28;20056;-84
2022/01/10 04:42:19;;;;;;;59.50;31.38;;;;;;;-0.56;100.00;101514.47;5053604;28;20057;-77
2022/01/10 04:44:45;;;;;;;54.05;31.20;;;;;;;-0.64;100.00;101514.50;5053486;28;20396;-87
2022/01/10 04:47:10;;;;;;;59.42;31.30;;;;;;;-0.55;100.00;101521.22;5053465;28;20028;-78
2022/01/10 04:50:01;;;;;;;60.50;30.98;;;;;;;-0.40;100.00;101546.47;5053283;28;20055;-78
2022/01/10 04:52:21;;;;;;;51.80;30.20;;;;;;;-0.36;100.00;101559.16;5053288;28;20499;-80
2022/01/10 04:54:46;;;;;;;54.10;30.83;;;;;;;-0.67;100.00;101507.75;5053513;28;20021;-89
2022/01/10 04:57:11;;;;;;;61.42;32.05;;;;;;;-0.29;100.00;101565.03;5035266;28;20037;-76
2022/01/10 04:59:37;;;;;;;57.83;31.55;;;;;;;-0.43;100.00;101538.88;5053338;28;20072;-80
2022/01/10 05:02:02;;;;;;;53.55;31.00;;;;;;;-0.59;100.00;101522.91;5053177;28;20098;-75
2022/01/10 05:04:27;;;;;;;56.92;32.08;;;;;;;-0.21;100.00;101570.03;5053234;28;20048;-88
2022/01/10 05:06:53;;;;;;;55.92;31.10;;;;;;;-0.21;100.00;101573.41;5053160;28;20423;-77
2022/01/10 05:09:18;;;;;;;57.05;31.45;;;;;;;-0.28;100.00;101568.41;5053085;28;20025;-90
2022/01/10 05:11:45;;;;;;;55.83;31.38;;;;;;;-0.26;100.00;101584.47;5053102;28;20083;-75
2022/01/10 05:14:11;;;;;;;54.55;30.23;;;;;;;-0.17;100.00;101595.41;5053133;28;20021;-87
2022/01/10 05:16:36;;;;;;;48.03;30.17;;;;;;;-0.16;100.00;101594.56;5052974;28;20031;-79
2022/01/10 05:19:02;;;;;;;51.55;28.73;;;;;;;-0.20;100.00;101595.41;5052912;28;20021;-78
2022/01/10 05:21:27;;;;;;;51.97;29.42;;;;;;;-0.13;100.00;101602.13;5034611;28;20135;-74
2022/01/10 05:23:52;;;;;;;53.95;29.30;;;;;;;-0.10;100.00;101611.41;5053090;28;20083;-88
2022/01/10 05:26:18;;;;;;;48.83;30.52;;;;;;;-0.12;100.00;101623.28;5052762;28;20032;-79
2022/01/10 05:28:43;;;;;;;59.35;30.65;;;;;;;-0.05;100.00;101628.31;5052721;28;20452;-75
2022/01/10 05:31:08;;;;;;;54.28;29.40;;;;;;;-0.03;100.00;101620.69;5052831;28;20024;-86
2022/01/10 05:33:34;;;;;;;50.90;29.67;;;;;;;-0.32;100.00;101577.72;5052683;28;20464;-75
2022/01/10 05:35:59;;;;;;;51.72;28.52;;;;;;;-0.13;100.00;101606.38;5052860;28;20057;-88
2022/01/10 05:38:25;;;;;;;50.53;29.05;;;;;;;-0.02;100.00;101630.00;5051910;28;20017;-89
2022/01/10 05:40:50;;;;;;;57.40;30.42;;;;;;;-0.02;100.00;101641.00;5052456;28;20135;-88
2022/01/10 05:43:15;;;;;;;50.17;28.50;;;;;;;-0.05;100.00;101650.34;5052528;28;20079;-75
2022/01/10 05:45:43;;;;;;;49.65;29.50;;;;;;;0.07;100.00;101662.94;5052407;28;20017;-75
2022/01/10 05:48:12;;;;;;;46.83;28.83;;;;;;;0.05;100.00;101658.75;5052629;28;20384;-90
2022/01/10 05:50:40;;;;;;;53.83;28.55;;;;;;;0.12;100.00;101665.47;5035463;28;20053;-79
2022/01/10 05:53:06;;;;;;;58.17;29.52;;;;;;;0.13;100.00;101674.78;5052652;28;20025;-88
2022/01/10 05:55:32;;;;;;;47.67;28.88;;;;;;;0.14;100.00;101673.91;5052300;28;20021;-90
2022/01/10 05:57:57;;;;;;;49.65;28.20;;;;;;;0.13;100.00;101684.94;5052309;28;20036;-83
2022/01/10 06:00:23;;;;;;;48.10;27.73;;;;;;;0.06;100.00;101665.50;5052371;28;20033;-89
2022/01/10 06:02:49;;;;;;;47.83;28.77;;;;;;;0.13;100.00;101685.78;5052526;28;20028;-75
2022/01/10 06:05:14;;;;;;;49.35;29.23;;;;;;;0.01;100.00;101659.63;5052247;28;20072;-88
2022/01/10 06:07:41;;;;;;;49.13;28.40;;;;;;;0.05;100.00;101664.66;5052482;28;20032;-79
2022/01/10 06:10:07;;;;;;;55.70;30.40;;;;;;;0.19;100.00;101689.94;5052669;28;20473;-75
2022/01/10 06:12:32;;;;;;;51.30;29.83;;;;;;;0.19;100.00;101698.41;5052118;28;20083;-75
2022/01/10 06:14:58;;;;;;;49.33;28.65;;;;;;;0.17;100.00;101692.50;5052230;28;20025;-81
2022/01/10 06:17:23;;;;;;;46.45;27.30;;;;;;;0.08;100.00;101686.63;5034267;28;20037;-77
2022/01/10 06:19:48;;;;;;;48.63;28.35;;;;;;;0.02;100.00;101677.38;5052065;28;20037;-81
2022/01/10 06:22:14;;;;;;;52.08;28.52;;;;;;;0.16;100.00;101717.91;5052265;28;20103;-88
2022/01/10 06:24:39;;;;;;;49.85;29.27;;;;;;;0.07;100.00;101705.28;5052441;28;20061;-76
2022/01/10 06:27:05;;;;;;;52.58;28.63;;;;;;;0.12;100.00;101719.66;5051795;28;20079;-87
2022/01/10 06:29:30;;;;;;;54.42;30.35;;;;;;;0.21;100.00;101728.91;5051963;28;20076;-79
2022/01/10 06:31:56;;;;;;;54.67;28.40;;;;;;;0.11;100.00;101728.13;5034045;28;20091;-79
2022/01/10 06:34:21;;;;;;;51.53;29.23;;;;;;;0.17;100.00;101745.84;5052099;28;20031;-80
2022/01/10 06:36:46;;;;;;;50.58;29.00;;;;;;;0.21;100.00;101750.06;5051981;28;20091;-91
2022/01/10 06:39:12;;;;;;;51.67;30.98;;;;;;;0.25;100.00;101755.97;5052138;28;20029;-86
2022/01/10 06:41:37;;;;;;;50.03;30.25;;;;;;;0.01;100.00;101711.25;5051721;28;20129;-76
2022/01/10 06:44:03;;;;;;;52.40;29.25;;;;;;;0.23;100.00;101755.97;5052023;28;20413;-75
2022/01/10 06:46:28;;;;;;;47.85;29.08;;;;;;;0.19;100.00;101749.22;5052038;28;20100;-77
2022/01/10 06:48:54;;;;;;;51.03;29.55;;;;;;;0.24;100.00;101762.75;5051796;28;20037;-88
2022/01/10 06:51:19;;;;;;;48.47;28.73;;;;;;;0.24;100.00;101762.75;5055468;28;20175;-80
2022/01/10 06:53:45;;;;;;;51.70;29.90;;;;;;;0.19;100.00;101756.84;5055595;28;20480;-75
2022/01/10 06:56:10;;;;;;;53.53;30.17;;;;;;;0.16;100.00;101768.72;5055527;28;20033;-80
2022/01/10 06:58:36;;;;;;;48.85;28.02;;;;;;;0.08;100.00;101761.13;5037511;28;20036;-76
2022/01/10 07:01:01;;;;;;;55.60;29.85;;;;;;;0.19;100.00;101778.84;5055445;28;20480;-78
2022/01/10 07:03:26;;;;;;;51.83;29.42;;;;;;;0.25;100.00;101796.63;5055431;28;20025;-77
2022/01/10 07:05:52;;;;;;;50.83;29.83;;;;;;;0.20;100.00;101796.66;5055482;28;20028;-76
2022/01/10 07:08:17;;;;;;;53.65;30.42;;;;;;;0.27;100.00;101816.06;5055135;28;20047;-76
2022/01/10 07:10:42;;;;;;;47.08;29.08;;;;;;;0.27;100.00;101825.38;5055239;28;20387;-76
2022/01/10 07:13:08;;;;;;;52.13;29.38;;;;;;;0.21;100.00;101812.72;5055190;28;20021;-75
2022/01/10 07:15:33;;;;;;;53.97;30.92;;;;;;;0.16;100.00;101809.34;5055372;28;20169;-89
2022/01/10 07:17:58;;;;;;;53.03;29.67;;;;;;;0.05;100.00;101793.31;5055523;28;20036;-76
2022/01/10 07:20:24;;;;;;;50.63;29.75;;;;;;;0.06;100.00;101806.00;5036968;28;20044;-87
2022/01/10 07:22:49;;;;;;;53.17;30.48;;;;;;;0.22;100.00;101843.19;5055363;28;20036;-85
2022/01/10 07:25:15;;;;;;;52.95;31.15;;;;;;;0.05;100.00;101818.72;5055254;28;20487;-87
2022/01/10 07:27:40;;;;;;;51.10;29.05;;;;;;;0.10;100.00;101835.63;5054794;28;20041;-87
2022/01/10 07:30:06;;;;;;;51.40;31.20;;;;;;;0.22;100.00;101855.06;5036658;28;20029;-83
2022/01/10 07:32:31;;;;;;;55.08;31.52;;;;;;;0.20;100.00;101870.31;5054771;28;20104;-76
2022/01/10 07:34:57;;;;;;;57.60;30.45;;;;;;;0.08;100.00;101860.16;5054627;28;20025;-83
2022/01/10 07:37:23;;;;;;;49.53;30.98;;;;;;;-0.08;100.00;101833.16;5054385;28;20028;-87
2022/01/10 07:39:49;;;;;;;54.72;30.55;;;;;;;0.12;100.00;101882.19;5055003;28;20052;-79
2022/01/10 07:42:14;;;;;;;47.13;30.33;;;;;;;0.10;100.00;101886.44;5054898;28;20122;-79
2022/01/10 07:44:40;;;;;;;55.83;31.80;;;;;;;0.01;100.00;101872.91;5054646;28;20464;-77
2022/01/10 07:47:07;;;;;;;60.38;32.47;;;;;;;-0.12;100.00;101870.38;5054564;28;20028;-81
2022/01/10 07:49:33;;;;;;;55.72;31.25;;;;;;;-0.12;100.00;101874.63;5036692;28;20102;-77
2022/01/10 07:51:58;;;;;;;51.42;32.00;;;;;;;-0.06;100.00;101893.22;5054582;28;20021;-82
2022/01/10 07:54:25;;;;;;;54.92;31.70;;;;;;;-0.09;100.00;101897.47;5054356;28;20116;-80
2022/01/10 07:56:50;;;;;;;56.80;31.75;;;;;;;-0.09;100.00;101902.56;5054508;28;20028;-79
2022/01/10 07:59:16;;;;;;;54.97;33.17;;;;;;;-0.12;100.00;101897.47;5057231;28;20379;-78
2022/01/10 08:01:41;;;;;;;57.15;32.10;;;;;;;-0.16;100.00;101900.88;5073493;28;20016;-76
2022/01/10 08:04:06;;;;;;;55.75;31.95;;;;;;;-0.05;100.00;101924.53;5074258;28;20492;-80
2022/01/10 08:06:32;;;;;;;53.30;30.67;;;;;;;-0.07;100.00;101933.84;5074002;28;20494;-78
2022/01/10 08:08:57;;;;;;;52.83;30.67;;;;;;;-0.04;100.00;101937.22;5073890;28;20029;-79
2022/01/10 08:11:26;;;;;;;54.67;32.90;;;;;;;-0.34;100.00;101900.03;5074203;28;20125;-78
2022/01/10 08:13:52;;;;;;;53.00;31.23;;;;;;;-0.15;100.00;101938.09;5073818;28;20480;-82
2022/01/10 08:16:17;;;;;;;52.00;31.75;;;;;;;-0.45;100.00;101891.59;5074085;28;20021;-80
2022/01/10 08:18:43;;;;;;;56.53;31.58;;;;;;;-0.08;100.00;101955.03;5056109;28;20032;-80
2022/01/10 08:21:08;;;;;;;58.35;32.35;;;;;;;-0.11;100.00;101955.84;5073889;28;20029;-75
2022/01/10 08:23:34;;;;;;;52.85;32.25;;;;;;;-0.04;100.00;101969.38;5073764;28;20025;-74
2022/01/10 08:25:59;;;;;;;54.03;30.48;;;;;;;-0.40;100.00;101922.88;5073671;28;20032;-75
2022/01/10 08:28:25;;;;;;;53.92;32.60;;;;;;;-0.28;100.00;101951.66;5073465;28;20444;-76
2022/01/10 08:30:50;;;;;;;57.08;33.88;;;;;;;-0.41;100.00;101927.94;5073804;28;20485;-75
2022/01/10 08:33:16;;;;;;;55.17;33.45;;;;;;;-0.28;100.00;101954.19;5073688;28;20096;-80
2022/01/10 08:35:41;;;;;;;57.63;33.83;;;;;;;-0.08;100.00;101993.09;5073875;28;20031;-79
2022/01/10 08:38:06;;;;;;;55.17;33.90;;;;;;;-0.05;100.00;102005.78;5073668;28;20029;-77
2022/01/10 08:40:32;;;;;;;59.15;36.40;;;;;;;0.00;100.00;102009.19;5073486;28;20032;-83
2022/01/10 08:42:59;;;;;;;61.53;35.80;;;;;;;0.08;100.00;102020.16;5073671;28;20028;-79
2022/01/10 08:45:25;;;;;;;62.03;36.42;;;;;;;0.14;100.00;102011.72;5073241;28;20035;-78
2022/01/10 08:47:50;;;;;;;62.85;36.20;;;;;;;0.30;100.00;102027.78;5073173;28;20032;-76
2022/01/10 08:50:16;;;;;;;61.45;36.58;;;;;;;0.20;100.00;102002.41;5073482;28;20032;-78
2022/01/10 08:52:42;;;;;;;58.03;35.35;;;;;;;0.53;100.00;102046.38;5073463;28;20020;-80
2022/01/10 08:55:09;;;;;;;63.90;35.63;;;;;;;0.65;100.00;102046.34;5055300;28;20039;-76
2022/01/10 08:57:35;;;;;;;58.25;33.10;;;;;;;0.52;100.00;102015.03;5073387;28;20104;-78
2022/01/10 09:00:02;;;;;;;54.10;33.80;;;;;;;0.83;100.00;102053.91;5072903;28;20494;-76
2022/01/10 09:02:28;;;;;;;57.92;34.63;;;;;;;0.94;100.00;102056.41;5072982;28;20028;-75
2022/01/10 09:04:53;;;;;;;54.75;32.65;;;;;;;1.03;100.00;102064.03;5073100;28;20054;-75
2022/01/10 09:07:18;;;;;;;54.33;31.77;;;;;;;1.07;100.00;102068.22;5054669;28;20098;-75
2022/01/10 09:09:44;;;;;;;52.90;30.42;;;;;;;1.10;100.00;102063.16;5072880;28;20094;-74
2022/01/10 09:12:10;;;;;;;48.03;29.85;;;;;;;1.01;100.00;102047.09;5072772;28;20021;-75
2022/01/10 09:14:35;;;;;;;45.53;29.38;;;;;;;1.15;100.00;102074.13;5073226;28;20028;-82
2022/01/10 09:17:01;;;;;;;49.80;29.92;;;;;;;1.23;100.00;102081.75;5072932;28;20037;-83
2022/01/10 09:19:27;;;;;;;49.33;29.85;;;;;;;1.26;99.54;102078.34;5053366;28;20036;-76
2022/01/10 09:21:52;;;;;;;48.00;29.33;;;;;;;1.31;99.93;102084.25;5072183;28;20046;-84
2022/01/10 09:24:17;;;;;;;51.30;29.45;;;;;;;1.37;99.46;102089.31;5072677;28;20033;-76
2022/01/10 09:26:43;;;;;;;51.42;29.25;;;;;;;1.29;99.64;102075.81;5072657;28;20033;-86
2022/01/10 09:29:08;;;;;;;54.65;30.15;;;;;;;1.34;99.28;102063.88;5054476;28;20059;-86
2022/01/10 09:31:34;;;;;;;45.40;28.85;;;;;;;1.42;98.65;102078.25;5072660;28;20075;-85
2022/01/10 09:34:00;;;;;;;42.83;28.77;;;;;;;1.58;98.61;102096.03;5072750;28;20024;-76
2022/01/10 09:36:29;;;;;;;47.63;28.63;;;;;;;1.60;98.31;102096.84;5072779;28;20021;-77
2022/01/10 09:38:57;;;;;;;42.95;28.40;;;;;;;1.66;98.33;102094.25;5072770;28;20020;-86
2022/01/10 09:41:24;;;;;;;42.45;27.95;;;;;;;1.62;97.96;102095.13;5064617;28;20060;-85
2022/01/10 09:43:56;;;;;;;43.70;28.02;;;;;;;1.62;97.68;102093.44;5072408;28;20443;-85
2022/01/10 09:46:23;;;;;;;50.13;27.85;;;;;;;1.63;97.96;102099.38;5072387;28;20024;-76
2022/01/10 09:48:48;;;;;;;44.20;26.08;;;;;;;1.65;97.90;102102.75;5072334;28;20491;-78
2022/01/10 09:51:14;;;;;;;37.97;24.77;;;;;;;1.68;97.61;102115.47;5072612;28;20068;-75
2022/01/10 09:53:40;;;;;;;41.33;25.65;;;;;;;1.68;97.36;102120.56;5072565;28;20407;-80
2022/01/10 09:56:05;;;;;;;39.22;24.83;;;;;;;1.68;97.23;102126.50;5072472;28;20058;-78
2022/01/10 09:58:30;;;;;;;44.10;25.98;;;;;;;1.71;97.19;102121.38;5053975;28;20498;-77
2022/01/10 10:00:58;;;;;;;38.00;25.10;;;;;;;1.79;96.71;102136.63;5072551;28;20023;-76
2022/01/10 10:03:24;;;;;;;39.33;23.85;;;;;;;1.69;96.67;102119.72;5072461;28;20043;-77
2022/01/10 10:05:53;;;;;;;38.38;23.17;;;;;;;1.77;96.09;102127.28;5072594;28;20508;-77
2022/01/10 10:08:24;;;;;;;35.70;23.52;;;;;;;1.89;95.35;102153.56;5072445;28;20119;-82
2022/01/10 10:10:50;;;;;;;37.00;23.10;;;;;;;1.81;95.08;102136.63;5072513;28;20383;-77
2022/01/10 10:13:16;;;;;;;35.97;23.30;;;;;;;1.90;95.44;102165.44;5072368;28;20036;-79
2022/01/10 10:15:44;;;;;;;37.83;24.10;;;;;;;1.91;95.47;102159.47;5053732;28;20041;-76
2022/01/10 10:18:15;;;;;;;40.03;22.88;;;;;;;1.83;95.28;102150.19;5072484;28;20020;-77
2022/01/10 10:20:42;;;;;;;37.63;22.55;;;;;;;1.78;94.73;102152.78;5072375;28;20124;-80
2022/01/10 10:23:14;;;;;;;38.78;23.60;;;;;;;1.87;95.29;102164.59;5072135;28;20452;-77
2022/01/10 10:25:50;;;;;;;40.33;22.70;;;;;;;1.99;95.23;102188.31;5074953;28;20024;-79
2022/01/10 10:28:18;;;;;;;35.30;23.60;;;;;;;1.90;95.54;102173.06;5076142;28;20040;-77
2022/01/10 10:30:43;;;;;;;37.90;23.65;;;;;;;1.80;95.41;102170.59;5076214;28;20036;-84
2022/01/10 10:33:23;;;;;;;39.17;23.42;;;;;;;1.88;95.58;102174.78;5075981;28;20083;-86
2022/01/10 10:36:03;;;;;;;38.03;24.55;;;;;;;1.78;95.89;102162.97;5075896;28;20040;-74
2022/01/10 10:38:29;;;;;;;41.88;24.27;;;;;;;2.00;95.96;102196.78;5076137;28;20021;-78
2022/01/10 10:41:00;;;;;;;53.95;35.20;;;;;;;2.03;96.08;102206.13;5075761;28;20147;-76
2022/01/10 10:43:25;;;;;;;46.67;27.80;;;;;;;2.05;96.45;102212.03;5076146;28;20380;-88
2022/01/10 10:45:54;;;;;;;47.53;27.73;;;;;;;1.95;96.56;102191.72;5076134;28;20035;-87
2022/01/10 10:48:19;;;;;;;39.88;26.00;;;;;;;2.07;96.58;102216.28;5058052;28;20043;-75
2022/01/10 10:50:46;;;;;;;45.22;26.42;;;;;;;2.07;97.36;102215.47;5075720;28;20025;-78
2022/01/10 10:53:14;;;;;;;45.75;25.00;;;;;;;1.95;97.07;102207.00;5075924;28;20017;-78
2022/01/10 10:55:41;;;;;;;40.90;24.90;;;;;;;2.04;97.43;102218.84;5075987;28;20407;-83
2022/01/10 10:58:11;;;;;;;41.58;23.42;;;;;;;2.01;96.81;102218.88;5075472;28;20090;-75
2022/01/10 11:00:37;;;;;;;39.22;23.13;;;;;;;2.06;97.54;102229.03;5075631;28;20033;-76
2022/01/10 11:03:04;;;;;;;46.38;23.42;;;;;;;2.00;97.27;102220.56;5075341;28;20035;-74
2022/01/10 11:05:29;;;;;;;38.95;22.58;;;;;;;2.13;97.22;102236.63;5075342;28;20020;-78
2022/01/10 11:07:56;;;;;;;43.63;22.88;;;;;;;2.17;97.14;102245.13;5075299;28;20094;-84
2022/01/10 11:10:24;;;;;;;44.80;25.08;;;;;;;2.18;96.83;102239.16;5075654;28;20020;-88